createdAt,value
2023-10-19T00:00:57.934Z,3.63
2023-10-19T00:03:28.170Z,2.83
2023-10-19T00:05:59.727Z,3.28
2023-10-19T00:08:37.630Z,4.00
2023-10-19T00:11:06.219Z,3.83
2023-10-19T00:13:36.883Z,3.17
2023-10-19T00:16:12.780Z,3.42
2023-10-19T00:18:44.079Z,3.78
2023-10-19T00:21:20.774Z,3.72
2023-10-19T00:23:51.735Z,3.00
2023-10-19T00:26:21.146Z,3.92
2023-10-19T00:29:00.750Z,3.90
2023-10-19T00:31:30.080Z,2.70
2023-10-19T00:34:02.104Z,3.45
2023-10-19T00:36:32.244Z,3.00
2023-10-19T00:39:06.373Z,4.07
2023-10-19T00:41:35.611Z,3.58
2023-10-19T00:44:08.485Z,2.78
2023-10-19T00:46:40.412Z,4.55
2023-10-19T00:49:10.715Z,3.80
2023-10-19T00:51:52.247Z,3.80
2023-10-19T00:54:33.186Z,3.45
2023-10-19T00:57:07.262Z,3.60
2023-10-19T00:59:40.022Z,3.58
2023-10-19T01:02:19.052Z,4.43
2023-10-19T01:04:51.956Z,3.00
2023-10-19T01:07:24.187Z,3.17
2023-10-19T01:09:57.841Z,3.42
2023-10-19T01:12:34.862Z,3.63
2023-10-19T01:15:14.141Z,2.90
2023-10-19T01:17:45.063Z,4.40
2023-10-19T01:20:22.285Z,3.75
2023-10-19T01:23:07.781Z,3.97
2023-10-19T01:25:47.367Z,3.05
2023-10-19T01:28:18.222Z,3.85
2023-10-19T01:30:52.681Z,3.10
2023-10-19T01:33:21.813Z,3.50
2023-10-19T01:36:07.581Z,3.35
2023-10-19T01:38:37.155Z,3.03
2023-10-19T01:41:08.841Z,3.40
2023-10-19T01:43:41.588Z,3.20
2023-10-19T01:46:12.990Z,4.40
2023-10-19T01:48:43.198Z,2.92
2023-10-19T01:51:12.196Z,2.85
2023-10-19T01:53:45.230Z,2.78
2023-10-19T01:56:15.411Z,2.50
2023-10-19T01:58:44.399Z,3.08
2023-10-19T02:01:21.507Z,3.67
2023-10-19T02:03:54.457Z,3.17
2023-10-19T02:06:27.433Z,3.50
2023-10-19T02:08:57.933Z,3.35
2023-10-19T02:11:26.680Z,4.05
2023-10-19T02:13:56.867Z,3.10
2023-10-19T02:16:24.424Z,4.32
2023-10-19T02:18:53.355Z,3.65
2023-10-19T02:21:23.528Z,2.70
2023-10-19T02:23:52.662Z,3.15
2023-10-19T02:26:24.130Z,2.72
2023-10-19T02:28:53.280Z,3.20
2023-10-19T02:31:22.815Z,2.78
2023-10-19T02:33:53.230Z,2.38
2023-10-19T02:36:21.565Z,2.85
2023-10-19T02:38:53.404Z,3.95
2023-10-19T02:41:22.072Z,3.35
2023-10-19T02:44:02.144Z,3.08
2023-10-19T02:49:59.236Z,3.10
2023-10-19T02:52:28.551Z,2.75
2023-10-19T02:55:00.863Z,3.40
2023-10-19T02:57:30.115Z,4.25
2023-10-19T02:59:59.350Z,3.40
2023-10-19T03:02:27.730Z,2.83
2023-10-19T03:04:56.154Z,2.70
2023-10-19T03:07:25.721Z,2.80
2023-10-19T03:09:54.786Z,3.13
2023-10-19T03:12:26.733Z,3.58
2023-10-19T03:14:53.975Z,2.95
2023-10-19T03:17:23.445Z,3.42
2023-10-19T03:19:50.664Z,3.05
2023-10-19T03:22:20.646Z,3.08
2023-10-19T03:24:59.429Z,2.85
2023-10-19T03:27:27.774Z,3.55
2023-10-19T03:29:56.768Z,2.80
2023-10-19T03:32:28.767Z,3.63
2023-10-19T03:34:58.519Z,3.83
2023-10-19T03:37:30.693Z,3.65
2023-10-19T03:40:03.519Z,3.20
2023-10-19T03:42:33.875Z,3.28
2023-10-19T03:45:06.557Z,3.25
2023-10-19T03:47:36.197Z,3.13
2023-10-19T03:50:08.089Z,3.33
2023-10-19T03:52:38.793Z,3.63
2023-10-19T03:55:16.271Z,3.45
2023-10-19T03:57:48.108Z,3.65
2023-10-19T04:00:19.638Z,3.40
2023-10-19T04:02:48.353Z,3.22
2023-10-19T04:05:21.634Z,2.53
2023-10-19T04:10:31.903Z,2.85
2023-10-19T04:13:01.706Z,3.28
2023-10-19T04:15:34.694Z,3.35
2023-10-19T04:18:03.486Z,3.22
2023-10-19T04:20:43.052Z,3.08
2023-10-19T04:23:17.003Z,3.22
2023-10-19T04:25:48.121Z,3.20
2023-10-19T04:28:17.095Z,3.33
2023-10-19T04:30:45.205Z,3.47
2023-10-19T04:33:13.836Z,4.28
2023-10-19T04:35:42.642Z,3.20
2023-10-19T04:38:11.200Z,3.63
2023-10-19T04:40:39.337Z,4.28
2023-10-19T04:43:08.922Z,4.68
2023-10-19T04:45:41.662Z,4.75
2023-10-19T04:48:11.282Z,3.47
2023-10-19T04:50:41.108Z,3.30
2023-10-19T04:53:09.309Z,4.13
2023-10-19T04:55:37.421Z,4.22
2023-10-19T04:58:07.025Z,4.30
2023-10-19T05:00:36.518Z,3.97
2023-10-19T05:03:04.976Z,5.40
2023-10-19T05:05:33.162Z,3.67
2023-10-19T05:08:01.270Z,4.05
2023-10-19T05:10:30.219Z,3.08
2023-10-19T05:13:00.012Z,2.78
2023-10-19T05:15:28.159Z,3.45
2023-10-19T05:17:57.879Z,3.90
2023-10-19T05:20:26.864Z,3.40
2023-10-19T05:22:54.968Z,3.13
2023-10-19T05:25:24.790Z,4.30
2023-10-19T05:27:53.111Z,5.15
2023-10-19T05:30:23.754Z,3.90
2023-10-19T05:32:53.459Z,3.47
2023-10-19T05:35:27.420Z,3.78
2023-10-19T05:37:56.656Z,4.20
2023-10-19T05:40:30.335Z,3.92
2023-10-19T05:43:01.934Z,3.30
2023-10-19T05:45:30.663Z,3.95
2023-10-19T05:47:59.418Z,3.40
2023-10-19T05:50:29.744Z,3.05
2023-10-19T05:52:57.970Z,4.40
2023-10-19T05:55:26.984Z,4.28
2023-10-19T05:57:55.124Z,3.38
2023-10-19T06:00:26.987Z,3.88
2023-10-19T06:02:55.733Z,3.70
2023-10-19T06:05:24.734Z,3.75
2023-10-19T06:07:54.260Z,4.18
2023-10-19T06:10:23.490Z,3.15
2023-10-19T06:12:53.602Z,3.53
2023-10-19T06:15:24.780Z,3.88
2023-10-19T06:17:54.128Z,3.10
2023-10-19T06:20:25.775Z,3.42
2023-10-19T06:22:57.332Z,3.47
2023-10-19T06:25:26.849Z,2.70
2023-10-19T06:27:58.218Z,3.22
2023-10-19T06:30:27.581Z,3.53
2023-10-19T06:32:58.309Z,3.08
2023-10-19T06:35:26.655Z,3.72
2023-10-19T06:37:57.223Z,3.70
2023-10-19T06:40:26.461Z,3.13
2023-10-19T06:42:57.813Z,3.20
2023-10-19T06:45:27.716Z,2.83
2023-10-19T06:47:55.957Z,3.05
2023-10-19T06:50:25.505Z,2.83
2023-10-19T06:52:55.762Z,2.33
2023-10-19T06:55:25.506Z,2.83
2023-10-19T06:57:56.503Z,2.95
2023-10-19T07:00:28.227Z,2.17
2023-10-19T07:02:58.720Z,2.20
2023-10-19T07:05:26.841Z,2.83
2023-10-19T07:07:57.488Z,3.03
2023-10-19T07:10:28.344Z,2.70
2023-10-19T07:12:59.067Z,2.40
2023-10-19T07:15:28.241Z,2.30
2023-10-19T07:17:56.487Z,2.47
2023-10-19T07:20:28.254Z,2.35
2023-10-19T07:22:57.466Z,2.70
2023-10-19T07:25:27.881Z,2.53
2023-10-19T07:27:56.088Z,3.00
2023-10-19T07:30:27.629Z,2.17
2023-10-19T07:32:59.868Z,2.53
2023-10-19T07:35:28.790Z,2.87
2023-10-19T07:37:58.130Z,5.97
2023-10-19T07:40:28.976Z,2.20
2023-10-19T07:42:57.172Z,2.35
2023-10-19T07:45:26.778Z,2.80
2023-10-19T07:50:59.208Z,2.38
2023-10-19T07:53:27.413Z,2.17
2023-10-19T07:55:55.475Z,2.33
2023-10-19T07:58:23.631Z,2.72
2023-10-19T08:00:53.597Z,2.72
2023-10-19T08:03:22.941Z,1.92
2023-10-19T08:05:51.288Z,2.13
2023-10-19T08:08:20.751Z,2.33
2023-10-19T08:10:49.186Z,2.67
2023-10-19T08:13:17.351Z,7.22
2023-10-19T08:15:46.063Z,3.50
2023-10-19T08:18:16.113Z,2.65
2023-10-19T08:20:46.360Z,2.25
2023-10-19T08:23:17.696Z,1.90
2023-10-19T08:25:56.119Z,2.05
2023-10-19T08:28:25.422Z,2.05
2023-10-19T08:31:01.630Z,1.70
2023-10-19T08:33:32.036Z,2.33
2023-10-19T08:36:01.487Z,1.88
2023-10-19T08:38:30.633Z,2.45
2023-10-19T08:41:01.191Z,1.83
2023-10-19T08:43:29.926Z,1.80
2023-10-19T08:45:58.362Z,1.70
2023-10-19T08:48:26.942Z,2.30
2023-10-19T08:50:57.092Z,1.63
2023-10-19T08:53:27.000Z,1.60
2023-10-19T08:55:56.891Z,2.40
2023-10-19T08:58:28.665Z,1.92
2023-10-19T09:00:57.469Z,1.73
2023-10-19T09:03:27.853Z,2.00
2023-10-19T09:05:57.540Z,1.42
2023-10-19T09:08:26.513Z,1.33
2023-10-19T09:10:56.205Z,2.17
2023-10-19T09:13:26.521Z,1.60
2023-10-19T09:15:56.668Z,1.50
2023-10-19T09:18:29.006Z,1.60
2023-10-19T09:21:04.007Z,1.20
2023-10-19T09:23:32.692Z,1.38
2023-10-19T09:26:04.060Z,1.30
2023-10-19T09:28:36.944Z,1.85
2023-10-19T09:31:06.592Z,1.52
2023-10-19T09:33:36.195Z,1.58
2023-10-19T09:36:14.126Z,1.52
2023-10-19T09:38:46.010Z,1.45
2023-10-19T09:41:16.065Z,1.92
2023-10-19T09:43:47.268Z,2.03
2023-10-19T09:46:23.521Z,1.50
2023-10-19T09:48:52.814Z,2.55
2023-10-19T09:51:22.964Z,1.38
2023-10-19T09:53:55.990Z,2.15
2023-10-19T09:59:01.662Z,2.03
2023-10-19T10:01:29.885Z,1.42
2023-10-19T10:04:01.070Z,1.60
2023-10-19T10:06:30.985Z,2.05
2023-10-19T10:09:01.732Z,1.65
2023-10-19T10:11:30.198Z,1.60
2023-10-19T10:14:01.265Z,1.45
2023-10-19T10:16:31.211Z,1.67
2023-10-19T10:19:01.481Z,1.70
2023-10-19T10:21:31.016Z,1.50
2023-10-19T10:24:00.589Z,2.13
2023-10-19T10:26:31.899Z,1.58
2023-10-19T10:29:15.787Z,1.67
2023-10-19T10:31:45.738Z,1.60
2023-10-19T10:34:34.938Z,1.70
2023-10-19T10:37:05.247Z,1.60
2023-10-19T10:39:33.780Z,1.48
2023-10-19T10:42:04.084Z,1.55
2023-10-19T10:44:41.323Z,2.17
2023-10-19T10:47:11.140Z,1.58
2023-10-19T10:49:52.809Z,1.90
2023-10-19T10:52:31.297Z,1.73
2023-10-19T10:55:00.439Z,2.10
2023-10-19T10:57:35.517Z,1.55
2023-10-19T11:00:08.608Z,1.60
2023-10-19T11:05:05.912Z,2.83
2023-10-19T11:07:34.202Z,1.80
2023-10-19T11:10:03.018Z,2.13
2023-10-19T11:12:31.729Z,2.05
2023-10-19T11:15:01.189Z,2.05
2023-10-19T11:17:32.868Z,2.92
2023-10-19T11:20:01.595Z,2.03
2023-10-19T11:22:30.336Z,2.42
2023-10-19T11:25:23.256Z,2.00
2023-10-19T11:27:51.436Z,2.35
2023-10-19T11:30:27.264Z,3.10
2023-10-19T11:32:58.182Z,2.33
2023-10-19T11:35:28.712Z,2.85
2023-10-19T11:38:00.217Z,2.33
2023-10-19T11:40:30.315Z,2.22
2023-10-19T11:42:59.909Z,2.90
2023-10-19T11:45:30.029Z,2.40
2023-10-19T11:47:58.771Z,2.85
2023-10-19T11:50:26.936Z,2.22
2023-10-19T11:52:55.198Z,2.55
2023-10-19T11:55:23.413Z,2.55
2023-10-19T11:57:53.521Z,2.60
2023-10-19T12:00:26.144Z,2.45
2023-10-19T12:02:54.522Z,2.10
2023-10-19T12:05:22.817Z,2.92
2023-10-19T12:07:51.078Z,2.78
2023-10-19T12:10:21.497Z,2.28
2023-10-19T12:13:00.794Z,1.85
2023-10-19T12:15:33.498Z,2.17
2023-10-19T12:18:02.903Z,2.65
2023-10-19T12:20:32.890Z,3.40
2023-10-19T12:23:02.016Z,2.90
2023-10-19T12:25:50.102Z,2.78
2023-10-19T12:28:22.066Z,3.15
2023-10-19T12:30:51.966Z,2.78
2023-10-19T12:33:21.017Z,3.10
2023-10-19T12:35:55.087Z,2.92
2023-10-19T12:38:23.410Z,2.72
2023-10-19T12:40:52.825Z,3.55
2023-10-19T12:43:23.113Z,3.15
2023-10-19T12:45:54.933Z,2.90
2023-10-19T12:48:23.201Z,3.70
2023-10-19T12:51:59.197Z,2.70
2023-10-19T12:54:29.179Z,3.45
2023-10-19T12:56:57.357Z,2.78
2023-10-19T12:59:25.495Z,2.85
2023-10-19T13:01:56.333Z,2.95
2023-10-19T13:04:25.441Z,2.80
2023-10-19T13:06:58.549Z,3.45
2023-10-19T13:09:33.864Z,2.33
2023-10-19T13:12:02.466Z,3.15
2023-10-19T13:14:30.745Z,3.10
2023-10-19T13:17:00.276Z,3.90
2023-10-19T13:19:28.985Z,3.30
2023-10-19T13:21:59.626Z,2.60
2023-10-19T13:24:29.261Z,3.53
2023-10-19T13:26:57.544Z,3.65
2023-10-19T13:29:27.833Z,3.47
2023-10-19T13:31:57.614Z,3.00
2023-10-19T13:34:25.827Z,3.38
2023-10-19T13:36:53.859Z,2.72
2023-10-19T13:39:22.562Z,3.03
2023-10-19T13:41:53.639Z,3.13
2023-10-19T13:44:21.814Z,2.50
2023-10-19T13:46:52.419Z,3.97
2023-10-19T13:49:20.651Z,2.58
2023-10-19T13:51:48.766Z,2.22
2023-10-19T13:54:18.456Z,2.63
2023-10-19T13:56:47.589Z,3.63
2023-10-19T13:59:17.122Z,2.67
2023-10-19T14:01:45.508Z,1.63
2023-10-19T14:04:15.613Z,2.00
2023-10-19T14:06:44.784Z,2.35
2023-10-19T14:09:13.958Z,2.17
2023-10-19T14:11:42.162Z,2.65
2023-10-19T14:14:12.190Z,2.22
2023-10-19T14:16:41.922Z,1.92
2023-10-19T14:19:10.062Z,2.08
2023-10-19T14:21:41.559Z,2.15
2023-10-19T14:24:10.702Z,2.47
2023-10-19T14:26:39.737Z,1.70
2023-10-19T14:29:08.010Z,1.48
2023-10-19T14:31:36.287Z,1.65
2023-10-19T14:34:06.226Z,2.47
2023-10-19T14:36:34.468Z,1.73
2023-10-19T14:39:02.492Z,2.13
2023-10-19T14:41:31.225Z,1.88
2023-10-19T14:44:00.806Z,2.22
2023-10-19T14:46:30.532Z,2.38
2023-10-19T14:48:58.825Z,1.77
2023-10-19T14:51:28.405Z,1.75
2023-10-19T14:53:56.608Z,1.70
2023-10-19T14:56:24.783Z,2.05
2023-10-19T14:58:55.928Z,1.10
2023-10-19T15:01:27.174Z,1.95
2023-10-19T15:03:55.727Z,2.47
2023-10-19T15:06:23.973Z,2.03
2023-10-19T15:08:53.735Z,2.55
2023-10-19T15:11:23.258Z,2.30
2023-10-19T15:13:52.586Z,1.88
2023-10-19T15:16:21.879Z,2.28
2023-10-19T15:18:50.235Z,1.73
2023-10-19T15:21:18.562Z,1.98
2023-10-19T15:23:48.009Z,2.05
2023-10-19T15:26:21.028Z,3.15
2023-10-19T15:28:49.772Z,1.70
2023-10-19T15:31:18.310Z,2.05
2023-10-19T15:33:47.561Z,2.20
2023-10-19T15:36:15.770Z,1.95
2023-10-19T15:38:45.081Z,2.13
2023-10-19T15:41:16.861Z,2.17
2023-10-19T15:43:46.679Z,2.33
2023-10-19T15:46:17.047Z,2.20
2023-10-19T15:48:45.574Z,2.47
2023-10-19T15:51:13.987Z,2.47
2023-10-19T15:53:42.576Z,1.92
2023-10-19T15:56:10.809Z,2.10
2023-10-19T15:58:39.280Z,2.40
2023-10-19T16:01:12.524Z,2.13
2023-10-19T16:03:42.146Z,3.05
2023-10-19T16:06:10.901Z,2.45
2023-10-19T16:08:39.181Z,2.13
2023-10-19T16:11:07.976Z,2.38
2023-10-19T16:13:36.826Z,2.30
2023-10-19T16:16:05.269Z,2.13
2023-10-19T16:18:34.787Z,2.72
2023-10-19T16:21:06.794Z,2.05
2023-10-19T16:23:35.141Z,2.35
2023-10-19T16:26:04.864Z,2.22
2023-10-19T16:28:33.956Z,3.13
2023-10-19T16:31:05.567Z,2.03
2023-10-19T16:33:36.633Z,2.22
2023-10-19T16:36:05.442Z,1.98
2023-10-19T16:38:33.623Z,2.13
2023-10-19T16:41:02.164Z,2.75
2023-10-19T16:43:30.349Z,2.60
2023-10-19T16:46:00.912Z,2.38
2023-10-19T16:48:29.149Z,2.60
2023-10-19T16:51:02.503Z,2.25
2023-10-19T16:53:30.922Z,2.67
2023-10-19T16:56:02.352Z,2.53
2023-10-19T16:58:31.167Z,2.42
2023-10-19T17:01:01.016Z,1.92
2023-10-19T17:03:30.413Z,2.85
2023-10-19T17:06:00.031Z,2.00
2023-10-19T17:08:28.197Z,1.85
2023-10-19T17:10:56.347Z,2.22
2023-10-19T17:13:24.638Z,2.08
2023-10-19T17:15:53.814Z,2.17
2023-10-19T17:18:22.093Z,2.75
2023-10-19T17:20:50.234Z,2.85
2023-10-19T17:23:20.527Z,2.63
2023-10-19T17:25:48.841Z,2.30
2023-10-19T17:28:17.552Z,2.35
2023-10-19T17:30:47.162Z,2.55
2023-10-19T17:33:15.486Z,2.10
2023-10-19T17:35:43.632Z,2.22
2023-10-19T17:38:13.213Z,2.40
2023-10-19T17:40:42.898Z,2.45
2023-10-19T17:43:12.718Z,1.90
2023-10-19T17:45:46.714Z,2.90
2023-10-19T17:48:15.234Z,2.35
2023-10-19T17:53:00.122Z,2.33
2023-10-19T17:55:28.522Z,2.90
2023-10-19T17:57:56.778Z,2.63
2023-10-19T18:00:26.047Z,3.45
2023-10-19T18:02:55.022Z,2.63
2023-10-19T18:05:25.129Z,2.47
2023-10-19T18:07:54.024Z,3.05
2023-10-19T18:10:29.775Z,3.08
2023-10-19T18:12:58.008Z,2.60
2023-10-19T18:15:28.347Z,2.20
2023-10-19T18:17:56.564Z,2.63
2023-10-19T18:20:25.006Z,2.58
2023-10-19T18:22:53.202Z,2.55
2023-10-19T18:25:24.848Z,3.55
2023-10-19T18:27:54.338Z,3.45
2023-10-19T18:30:22.558Z,2.33
2023-10-19T18:32:51.767Z,2.63
2023-10-19T18:35:21.190Z,3.45
2023-10-19T18:37:50.595Z,4.28
2023-10-19T18:40:21.449Z,2.78
2023-10-19T18:42:49.641Z,2.53
2023-10-19T18:45:19.707Z,2.67
2023-10-19T18:47:48.118Z,3.08
2023-10-19T18:50:32.783Z,2.65
2023-10-19T18:53:04.528Z,2.40
2023-10-19T18:55:33.218Z,1.70
2023-10-19T18:58:03.673Z,2.63
2023-10-19T19:00:34.778Z,2.53
2023-10-19T19:03:03.066Z,2.28
2023-10-19T19:05:32.209Z,2.08
2023-10-19T19:08:00.469Z,2.53
2023-10-19T19:10:34.141Z,2.10
2023-10-19T19:13:03.131Z,2.03
2023-10-19T19:15:31.250Z,1.83
2023-10-19T19:18:00.822Z,2.47
2023-10-19T19:20:29.325Z,1.63
2023-10-19T19:22:58.210Z,2.20
2023-10-19T19:25:26.628Z,1.63
2023-10-19T19:27:55.068Z,2.03
2023-10-19T19:30:23.263Z,1.05
2023-10-19T19:32:51.789Z,1.83
2023-10-19T19:35:21.478Z,2.65
2023-10-19T19:37:49.571Z,1.65
2023-10-19T19:40:19.105Z,1.50
2023-10-19T19:42:47.299Z,2.10
2023-10-19T19:45:16.533Z,1.50
2023-10-19T19:47:46.511Z,1.70
2023-10-19T19:50:15.834Z,1.90
2023-10-19T19:52:45.813Z,2.00
2023-10-19T19:55:14.722Z,1.40
2023-10-19T19:57:43.856Z,1.30
2023-10-19T20:00:16.889Z,1.25
2023-10-19T20:02:47.910Z,1.67
2023-10-19T20:05:17.836Z,1.42
2023-10-19T20:07:47.654Z,2.38
2023-10-19T20:10:16.580Z,1.40
2023-10-19T20:12:45.927Z,1.10
2023-10-19T20:15:15.770Z,1.75
2023-10-19T20:17:44.898Z,1.52
2023-10-19T20:20:13.986Z,1.70
2023-10-19T20:22:43.729Z,1.63
2023-10-19T20:25:14.177Z,1.73
2023-10-19T20:27:43.125Z,1.80
2023-10-19T20:30:14.064Z,1.35
2023-10-19T20:32:42.987Z,1.58
2023-10-19T20:35:12.112Z,1.77
2023-10-19T20:37:40.457Z,1.23
2023-10-19T20:40:10.877Z,1.13
2023-10-19T20:42:44.409Z,1.23
2023-10-19T20:45:13.156Z,1.83
2023-10-19T20:47:42.888Z,1.67
2023-10-19T20:50:11.967Z,1.33
2023-10-19T20:52:40.717Z,2.15
2023-10-19T20:55:10.415Z,1.85
2023-10-19T20:57:40.150Z,1.08
2023-10-19T21:00:10.553Z,1.55
2023-10-19T21:02:38.696Z,1.55
2023-10-19T21:05:07.478Z,1.45
2023-10-19T21:07:35.701Z,1.58
2023-10-19T21:10:06.356Z,1.20
2023-10-19T21:12:34.536Z,1.52
2023-10-19T21:15:04.196Z,1.50
2023-10-19T21:17:33.161Z,1.88
2023-10-19T21:20:01.526Z,1.40
2023-10-19T21:22:29.782Z,1.70
2023-10-19T21:24:58.008Z,1.48
2023-10-19T21:27:26.168Z,1.60
2023-10-19T21:29:54.273Z,1.83
2023-10-19T21:32:23.817Z,1.73
2023-10-19T21:34:52.161Z,1.42
2023-10-19T21:37:20.693Z,1.45
2023-10-19T21:39:49.388Z,1.55
2023-10-19T21:42:17.569Z,2.08
2023-10-19T21:44:47.139Z,1.20
2023-10-19T21:47:17.252Z,1.98
2023-10-19T21:49:49.916Z,1.77
2023-10-19T21:52:21.660Z,1.60
2023-10-19T21:54:49.996Z,1.40
2023-10-19T21:57:18.855Z,1.83
2023-10-19T21:59:47.409Z,1.58
2023-10-19T22:02:17.268Z,2.08
2023-10-19T22:04:47.093Z,1.60
2023-10-19T22:07:15.651Z,1.73
2023-10-19T22:09:44.051Z,1.60
2023-10-19T22:12:12.331Z,1.58
2023-10-19T22:14:41.246Z,1.70
2023-10-19T22:17:09.382Z,1.42
2023-10-19T22:19:37.527Z,1.48
2023-10-19T22:22:07.764Z,1.65
2023-10-19T22:24:36.035Z,1.23
2023-10-19T22:27:04.408Z,1.35
2023-10-19T22:29:34.056Z,1.73
2023-10-19T22:32:02.601Z,1.23
2023-10-19T22:34:31.000Z,1.08
2023-10-19T22:36:59.397Z,1.52
2023-10-19T22:39:29.421Z,1.60
2023-10-19T22:41:57.578Z,1.85
2023-10-19T22:44:25.905Z,1.58
2023-10-19T22:46:54.138Z,1.65
2023-10-19T22:49:22.369Z,1.88
2023-10-19T22:54:01.386Z,1.85
2023-10-19T22:56:29.470Z,2.22
2023-10-19T22:58:58.096Z,1.55
2023-10-19T23:01:26.733Z,1.65
2023-10-19T23:03:54.816Z,1.73
2023-10-19T23:06:26.547Z,2.10
2023-10-19T23:08:55.458Z,1.92
2023-10-19T23:11:29.986Z,1.85
2023-10-19T23:14:00.819Z,1.90
2023-10-19T23:16:33.171Z,1.33
2023-10-19T23:19:01.618Z,1.63
2023-10-19T23:21:33.977Z,2.30
2023-10-19T23:24:02.529Z,1.75
2023-10-19T23:26:32.881Z,1.55
2023-10-19T23:29:05.919Z,1.52
2023-10-19T23:31:39.338Z,1.90
2023-10-19T23:34:07.744Z,1.45
2023-10-19T23:36:36.912Z,2.53
2023-10-19T23:39:08.192Z,1.90
2023-10-19T23:41:37.881Z,2.10
2023-10-19T23:44:07.234Z,2.35
2023-10-19T23:46:35.584Z,2.05
2023-10-19T23:49:05.518Z,2.08
2023-10-19T23:51:33.750Z,2.10
2023-10-19T23:54:01.879Z,2.28
2023-10-19T23:56:30.558Z,2.10
2023-10-19T23:59:00.387Z,1.70
